sensor_id;sensor_type;location;lat;lon;timestamp;P1;durP1;ratioP1;P2;durP2;ratioP2
61460;SDS011;47325;50.506;4.472;2023-06-22T00:05:23;3.20;;;1.90;;
61460;SDS011;47325;50.506;4.472;2023-06-22T00:11:07;3.10;;;1.90;;
61460;SDS011;47325;50.506;4.472;2023-06-22T00:16:54;3.20;;;2.00;;
61460;SDS011;47325;50.506;4.472;2023-06-22T00:22:40;2.60;;;1.90;;
61460;SDS011;47325;50.506;4.472;2023-06-22T00:28:24;3.60;;;2.00;;
61460;SDS011;47325;50.506;4.472;2023-06-22T00:34:09;3.00;;;2.00;;
61460;SDS011;47325;50.506;4.472;2023-06-22T00:39:53;2.40;;;2.00;;
61460;SDS011;47325;50.506;4.472;2023-06-22T00:45:37;2.70;;;1.80;;
61460;SDS011;47325;50.506;4.472;2023-06-22T00:51:22;2.90;;;2.00;;
61460;SDS011;47325;50.506;4.472;2023-06-22T00:57:06;2.20;;;2.00;;
61460;SDS011;47325;50.506;4.472;2023-06-22T01:02:50;2.50;;;2.00;;
61460;SDS011;47325;50.506;4.472;2023-06-22T01:08:38;2.50;;;1.80;;
61460;SDS011;47325;50.506;4.472;2023-06-22T01:14:26;2.60;;;1.80;;
61460;SDS011;47325;50.506;4.472;2023-06-22T01:20:12;2.40;;;2.00;;
61460;SDS011;47325;50.506;4.472;2023-06-22T01:26:02;2.60;;;1.90;;
61460;SDS011;47325;50.506;4.472;2023-06-22T01:31:49;2.70;;;1.80;;
61460;SDS011;47325;50.506;4.472;2023-06-22T01:37:35;2.30;;;2.00;;
61460;SDS011;47325;50.506;4.472;2023-06-22T01:43:20;2.80;;;1.90;;
61460;SDS011;47325;50.506;4.472;2023-06-22T01:49:05;3.60;;;2.00;;
61460;SDS011;47325;50.506;4.472;2023-06-22T01:54:49;2.70;;;1.80;;
61460;SDS011;47325;50.506;4.472;2023-06-22T02:00:37;2.40;;;1.90;;
61460;SDS011;47325;50.506;4.472;2023-06-22T02:06:39;2.60;;;2.10;;
61460;SDS011;47325;50.506;4.472;2023-06-22T02:12:24;2.60;;;1.80;;
61460;SDS011;47325;50.506;4.472;2023-06-22T02:18:09;2.30;;;1.80;;
61460;SDS011;47325;50.506;4.472;2023-06-22T02:23:53;2.50;;;1.80;;
61460;SDS011;47325;50.506;4.472;2023-06-22T02:29:38;2.30;;;1.80;;
61460;SDS011;47325;50.506;4.472;2023-06-22T02:35:22;2.80;;;1.70;;
61460;SDS011;47325;50.506;4.472;2023-06-22T02:41:06;2.20;;;1.80;;
61460;SDS011;47325;50.506;4.472;2023-06-22T02:46:50;2.80;;;1.80;;
61460;SDS011;47325;50.506;4.472;2023-06-22T02:52:37;2.20;;;1.90;;
61460;SDS011;47325;50.506;4.472;2023-06-22T02:58:21;2.10;;;1.60;;
61460;SDS011;47325;50.506;4.472;2023-06-22T03:04:05;1.90;;;1.70;;
61460;SDS011;47325;50.506;4.472;2023-06-22T03:09:50;2.80;;;1.70;;
61460;SDS011;47325;50.506;4.472;2023-06-22T03:15:34;3.10;;;1.80;;
61460;SDS011;47325;50.506;4.472;2023-06-22T03:21:19;2.40;;;1.60;;
61460;SDS011;47325;50.506;4.472;2023-06-22T03:27:03;2.20;;;1.70;;
61460;SDS011;47325;50.506;4.472;2023-06-22T03:32:48;2.80;;;1.90;;
61460;SDS011;47325;50.506;4.472;2023-06-22T03:38:33;2.90;;;1.80;;
61460;SDS011;47325;50.506;4.472;2023-06-22T03:44:18;2.90;;;1.80;;
61460;SDS011;47325;50.506;4.472;2023-06-22T03:50:02;2.40;;;1.80;;
61460;SDS011;47325;50.506;4.472;2023-06-22T03:55:51;5.80;;;4.00;;
61460;SDS011;47325;50.506;4.472;2023-06-22T04:01:36;5.60;;;3.60;;
61460;SDS011;47325;50.506;4.472;2023-06-22T04:07:20;5.40;;;3.60;;
61460;SDS011;47325;50.506;4.472;2023-06-22T04:13:04;4.50;;;3.70;;
61460;SDS011;47325;50.506;4.472;2023-06-22T04:18:49;9.40;;;3.60;;
61460;SDS011;47325;50.506;4.472;2023-06-22T04:24:33;5.80;;;3.70;;
61460;SDS011;47325;50.506;4.472;2023-06-22T04:30:17;4.90;;;3.60;;
61460;SDS011;47325;50.506;4.472;2023-06-22T04:36:02;4.80;;;3.70;;
61460;SDS011;47325;50.506;4.472;2023-06-22T04:41:46;5.70;;;3.80;;
61460;SDS011;47325;50.506;4.472;2023-06-22T04:47:31;6.60;;;3.50;;
61460;SDS011;47325;50.506;4.472;2023-06-22T04:53:16;5.50;;;3.70;;
61460;SDS011;47325;50.506;4.472;2023-06-22T04:59:00;5.40;;;3.70;;
61460;SDS011;47325;50.506;4.472;2023-06-22T05:04:45;6.60;;;3.90;;
61460;SDS011;47325;50.506;4.472;2023-06-22T05:10:30;5.20;;;3.90;;
61460;SDS011;47325;50.506;4.472;2023-06-22T05:16:15;7.00;;;3.90;;
61460;SDS011;47325;50.506;4.472;2023-06-22T05:21:59;6.70;;;4.40;;
61460;SDS011;47325;50.506;4.472;2023-06-22T05:27:44;6.90;;;4.50;;
61460;SDS011;47325;50.506;4.472;2023-06-22T05:33:29;9.10;;;5.40;;
61460;SDS011;47325;50.506;4.472;2023-06-22T05:39:16;8.90;;;5.60;;
61460;SDS011;47325;50.506;4.472;2023-06-22T05:45:00;7.80;;;5.10;;
61460;SDS011;47325;50.506;4.472;2023-06-22T05:50:47;6.20;;;4.40;;
61460;SDS011;47325;50.506;4.472;2023-06-22T05:56:31;7.00;;;5.00;;
61460;SDS011;47325;50.506;4.472;2023-06-22T06:02:16;6.80;;;4.90;;
61460;SDS011;47325;50.506;4.472;2023-06-22T06:08:01;9.10;;;5.70;;
61460;SDS011;47325;50.506;4.472;2023-06-22T06:13:45;7.70;;;5.60;;
61460;SDS011;47325;50.506;4.472;2023-06-22T06:19:31;8.20;;;6.30;;
61460;SDS011;47325;50.506;4.472;2023-06-22T06:25:15;9.30;;;5.90;;
61460;SDS011;47325;50.506;4.472;2023-06-22T06:31:00;9.60;;;6.90;;
61460;SDS011;47325;50.506;4.472;2023-06-22T06:36:45;11.30;;;6.70;;
61460;SDS011;47325;50.506;4.472;2023-06-22T06:42:31;11.10;;;7.30;;
61460;SDS011;47325;50.506;4.472;2023-06-22T06:48:15;11.20;;;8.30;;
61460;SDS011;47325;50.506;4.472;2023-06-22T06:53:59;13.00;;;8.50;;
61460;SDS011;47325;50.506;4.472;2023-06-22T06:59:44;11.80;;;8.00;;
61460;SDS011;47325;50.506;4.472;2023-06-22T07:05:28;11.20;;;7.70;;
61460;SDS011;47325;50.506;4.472;2023-06-22T07:11:13;13.00;;;7.60;;
61460;SDS011;47325;50.506;4.472;2023-06-22T07:16:57;7.90;;;5.00;;
61460;SDS011;47325;50.506;4.472;2023-06-22T07:22:42;7.30;;;3.80;;
61460;SDS011;47325;50.506;4.472;2023-06-22T07:28:27;5.00;;;3.30;;
61460;SDS011;47325;50.506;4.472;2023-06-22T07:34:12;5.10;;;2.90;;
61460;SDS011;47325;50.506;4.472;2023-06-22T07:39:56;4.60;;;3.10;;
61460;SDS011;47325;50.506;4.472;2023-06-22T07:45:44;5.20;;;3.30;;
61460;SDS011;47325;50.506;4.472;2023-06-22T07:51:30;4.40;;;3.50;;
61460;SDS011;47325;50.506;4.472;2023-06-22T07:57:15;4.30;;;3.10;;
61460;SDS011;47325;50.506;4.472;2023-06-22T08:03:00;4.40;;;3.00;;
61460;SDS011;47325;50.506;4.472;2023-06-22T08:08:45;5.20;;;3.10;;
61460;SDS011;47325;50.506;4.472;2023-06-22T08:14:29;5.00;;;2.90;;
61460;SDS011;47325;50.506;4.472;2023-06-22T08:20:14;5.20;;;3.10;;
61460;SDS011;47325;50.506;4.472;2023-06-22T08:25:59;3.70;;;3.00;;
61460;SDS011;47325;50.506;4.472;2023-06-22T08:31:43;4.50;;;3.10;;
61460;SDS011;47325;50.506;4.472;2023-06-22T08:37:28;6.20;;;3.00;;
61460;SDS011;47325;50.506;4.472;2023-06-22T08:43:13;4.40;;;2.80;;
61460;SDS011;47325;50.506;4.472;2023-06-22T08:48:57;4.20;;;2.90;;
61460;SDS011;47325;50.506;4.472;2023-06-22T08:54:42;4.00;;;3.00;;
61460;SDS011;47325;50.506;4.472;2023-06-22T09:00:26;5.80;;;3.20;;
61460;SDS011;47325;50.506;4.472;2023-06-22T09:06:10;5.20;;;3.00;;
61460;SDS011;47325;50.506;4.472;2023-06-22T09:11:55;4.50;;;3.20;;
61460;SDS011;47325;50.506;4.472;2023-06-22T09:17:40;4.90;;;3.30;;
61460;SDS011;47325;50.506;4.472;2023-06-22T09:23:25;4.50;;;3.10;;
61460;SDS011;47325;50.506;4.472;2023-06-22T09:29:09;3.70;;;3.00;;
61460;SDS011;47325;50.506;4.472;2023-06-22T09:34:54;4.20;;;3.20;;
61460;SDS011;47325;50.506;4.472;2023-06-22T09:40:39;4.30;;;3.00;;
61460;SDS011;47325;50.506;4.472;2023-06-22T09:46:24;4.60;;;3.10;;
61460;SDS011;47325;50.506;4.472;2023-06-22T09:52:10;6.20;;;3.20;;
61460;SDS011;47325;50.506;4.472;2023-06-22T09:57:54;5.30;;;3.00;;
61460;SDS011;47325;50.506;4.472;2023-06-22T10:03:39;5.20;;;3.40;;
61460;SDS011;47325;50.506;4.472;2023-06-22T10:09:24;5.80;;;4.00;;
61460;SDS011;47325;50.506;4.472;2023-06-22T10:15:10;5.20;;;3.90;;
61460;SDS011;47325;50.506;4.472;2023-06-22T10:20:56;6.50;;;3.90;;
61460;SDS011;47325;50.506;4.472;2023-06-22T10:26:40;5.30;;;3.80;;
61460;SDS011;47325;50.506;4.472;2023-06-22T10:32:24;5.40;;;3.70;;
61460;SDS011;47325;50.506;4.472;2023-06-22T10:38:09;4.80;;;3.50;;
61460;SDS011;47325;50.506;4.472;2023-06-22T10:43:53;6.20;;;3.90;;
61460;SDS011;47325;50.506;4.472;2023-06-22T10:49:37;6.40;;;3.90;;
61460;SDS011;47325;50.506;4.472;2023-06-22T10:55:22;5.70;;;4.10;;
61460;SDS011;47325;50.506;4.472;2023-06-22T11:01:06;7.00;;;4.30;;
61460;SDS011;47325;50.506;4.472;2023-06-22T11:07:07;5.30;;;3.70;;
61460;SDS011;47325;50.506;4.472;2023-06-22T11:12:51;5.00;;;3.60;;
61460;SDS011;47325;50.506;4.472;2023-06-22T11:18:35;8.20;;;6.10;;
61460;SDS011;47325;50.506;4.472;2023-06-22T11:24:21;11.60;;;8.80;;
61460;SDS011;47325;50.506;4.472;2023-06-22T11:30:06;20.90;;;11.20;;
61460;SDS011;47325;50.506;4.472;2023-06-22T11:35:50;50.50;;;30.30;;
61460;SDS011;47325;50.506;4.472;2023-06-22T11:41:34;45.40;;;26.00;;
61460;SDS011;47325;50.506;4.472;2023-06-22T11:47:19;34.90;;;21.70;;
61460;SDS011;47325;50.506;4.472;2023-06-22T11:53:03;29.40;;;18.60;;
61460;SDS011;47325;50.506;4.472;2023-06-22T11:58:49;25.80;;;16.60;;
61460;SDS011;47325;50.506;4.472;2023-06-22T12:04:34;22.70;;;14.60;;
61460;SDS011;47325;50.506;4.472;2023-06-22T12:10:19;20.20;;;13.10;;
61460;SDS011;47325;50.506;4.472;2023-06-22T12:16:03;19.90;;;11.90;;
61460;SDS011;47325;50.506;4.472;2023-06-22T12:21:48;17.80;;;11.30;;
61460;SDS011;47325;50.506;4.472;2023-06-22T12:27:32;14.90;;;10.10;;
61460;SDS011;47325;50.506;4.472;2023-06-22T12:33:17;12.50;;;8.70;;
61460;SDS011;47325;50.506;4.472;2023-06-22T12:39:01;11.30;;;8.30;;
61460;SDS011;47325;50.506;4.472;2023-06-22T12:44:46;12.30;;;7.80;;
61460;SDS011;47325;50.506;4.472;2023-06-22T12:50:30;9.60;;;6.90;;
61460;SDS011;47325;50.506;4.472;2023-06-22T12:56:16;9.40;;;7.00;;
61460;SDS011;47325;50.506;4.472;2023-06-22T13:02:01;9.10;;;6.50;;
61460;SDS011;47325;50.506;4.472;2023-06-22T13:07:45;8.40;;;6.20;;
61460;SDS011;47325;50.506;4.472;2023-06-22T13:13:30;8.50;;;6.50;;
61460;SDS011;47325;50.506;4.472;2023-06-22T13:19:18;8.10;;;6.60;;
61460;SDS011;47325;50.506;4.472;2023-06-22T13:25:02;7.20;;;6.00;;
61460;SDS011;47325;50.506;4.472;2023-06-22T13:30:47;8.10;;;6.10;;
61460;SDS011;47325;50.506;4.472;2023-06-22T13:36:32;7.50;;;6.30;;
61460;SDS011;47325;50.506;4.472;2023-06-22T13:42:17;8.20;;;6.00;;
61460;SDS011;47325;50.506;4.472;2023-06-22T13:48:01;8.00;;;6.30;;
61460;SDS011;47325;50.506;4.472;2023-06-22T13:53:46;7.50;;;5.80;;
61460;SDS011;47325;50.506;4.472;2023-06-22T13:59:30;7.40;;;5.80;;
61460;SDS011;47325;50.506;4.472;2023-06-22T14:05:15;6.50;;;5.80;;
61460;SDS011;47325;50.506;4.472;2023-06-22T14:10:59;6.40;;;5.60;;
61460;SDS011;47325;50.506;4.472;2023-06-22T14:16:43;6.90;;;5.70;;
61460;SDS011;47325;50.506;4.472;2023-06-22T14:22:28;6.10;;;5.30;;
61460;SDS011;47325;50.506;4.472;2023-06-22T14:28:12;6.80;;;5.40;;
61460;SDS011;47325;50.506;4.472;2023-06-22T14:33:56;7.90;;;6.20;;
61460;SDS011;47325;50.506;4.472;2023-06-22T14:39:41;6.60;;;5.90;;
61460;SDS011;47325;50.506;4.472;2023-06-22T14:45:25;7.00;;;5.80;;
61460;SDS011;47325;50.506;4.472;2023-06-22T14:51:11;6.40;;;5.30;;
61460;SDS011;47325;50.506;4.472;2023-06-22T14:57:00;6.00;;;5.40;;
61460;SDS011;47325;50.506;4.472;2023-06-22T15:02:45;5.90;;;4.80;;
61460;SDS011;47325;50.506;4.472;2023-06-22T15:08:30;6.10;;;5.10;;
61460;SDS011;47325;50.506;4.472;2023-06-22T15:14:14;6.10;;;5.30;;
61460;SDS011;47325;50.506;4.472;2023-06-22T15:19:58;5.60;;;5.00;;
61460;SDS011;47325;50.506;4.472;2023-06-22T15:25:43;5.90;;;5.30;;
61460;SDS011;47325;50.506;4.472;2023-06-22T15:31:30;6.60;;;5.80;;
61460;SDS011;47325;50.506;4.472;2023-06-22T15:37:15;7.20;;;6.00;;
61460;SDS011;47325;50.506;4.472;2023-06-22T15:43:00;7.60;;;6.50;;
61460;SDS011;47325;50.506;4.472;2023-06-22T15:48:44;8.50;;;6.50;;
61460;SDS011;47325;50.506;4.472;2023-06-22T15:54:36;8.30;;;6.70;;
61460;SDS011;47325;50.506;4.472;2023-06-22T16:00:21;7.60;;;6.30;;
61460;SDS011;47325;50.506;4.472;2023-06-22T16:06:05;8.20;;;6.70;;
61460;SDS011;47325;50.506;4.472;2023-06-22T16:11:50;8.00;;;6.90;;
61460;SDS011;47325;50.506;4.472;2023-06-22T16:17:34;8.20;;;6.40;;
61460;SDS011;47325;50.506;4.472;2023-06-22T16:23:19;7.70;;;6.60;;
61460;SDS011;47325;50.506;4.472;2023-06-22T16:29:03;8.00;;;7.10;;
61460;SDS011;47325;50.506;4.472;2023-06-22T16:34:49;23.60;;;15.30;;
61460;SDS011;47325;50.506;4.472;2023-06-22T16:40:33;48.80;;;28.30;;
61460;SDS011;47325;50.506;4.472;2023-06-22T16:46:17;24.50;;;15.40;;
61460;SDS011;47325;50.506;4.472;2023-06-22T16:52:02;17.80;;;13.00;;
61460;SDS011;47325;50.506;4.472;2023-06-22T16:57:47;21.70;;;13.20;;
61460;SDS011;47325;50.506;4.472;2023-06-22T17:03:33;50.80;;;27.10;;
61460;SDS011;47325;50.506;4.472;2023-06-22T17:09:19;55.90;;;29.90;;
61460;SDS011;47325;50.506;4.472;2023-06-22T17:15:06;35.30;;;20.70;;
61460;SDS011;47325;50.506;4.472;2023-06-22T17:20:51;28.50;;;17.00;;
61460;SDS011;47325;50.506;4.472;2023-06-22T17:26:35;24.80;;;14.60;;
61460;SDS011;47325;50.506;4.472;2023-06-22T17:32:19;20.40;;;13.10;;
61460;SDS011;47325;50.506;4.472;2023-06-22T17:38:04;21.90;;;12.60;;
61460;SDS011;47325;50.506;4.472;2023-06-22T17:43:48;21.20;;;11.50;;
61460;SDS011;47325;50.506;4.472;2023-06-22T17:49:33;62.60;;;27.40;;
61460;SDS011;47325;50.506;4.472;2023-06-22T17:55:19;69.90;;;28.50;;
61460;SDS011;47325;50.506;4.472;2023-06-22T18:01:03;48.00;;;21.20;;
61460;SDS011;47325;50.506;4.472;2023-06-22T18:06:48;41.80;;;18.70;;
61460;SDS011;47325;50.506;4.472;2023-06-22T18:12:33;33.60;;;16.40;;
61460;SDS011;47325;50.506;4.472;2023-06-22T18:18:17;31.40;;;15.30;;
61460;SDS011;47325;50.506;4.472;2023-06-22T18:24:01;26.90;;;13.90;;
61460;SDS011;47325;50.506;4.472;2023-06-22T18:29:46;23.60;;;13.50;;
61460;SDS011;47325;50.506;4.472;2023-06-22T18:35:31;21.40;;;12.70;;
61460;SDS011;47325;50.506;4.472;2023-06-22T18:41:24;22.20;;;12.10;;
61460;SDS011;47325;50.506;4.472;2023-06-22T18:47:13;19.90;;;11.60;;
61460;SDS011;47325;50.506;4.472;2023-06-22T18:53:10;21.80;;;11.10;;
61460;SDS011;47325;50.506;4.472;2023-06-22T18:58:58;17.50;;;10.70;;
61460;SDS011;47325;50.506;4.472;2023-06-22T19:04:44;19.40;;;10.10;;
61460;SDS011;47325;50.506;4.472;2023-06-22T19:10:28;18.20;;;10.30;;
61460;SDS011;47325;50.506;4.472;2023-06-22T19:16:13;19.60;;;10.20;;
61460;SDS011;47325;50.506;4.472;2023-06-22T19:22:04;17.60;;;10.20;;
61460;SDS011;47325;50.506;4.472;2023-06-22T19:27:49;15.60;;;10.30;;
61460;SDS011;47325;50.506;4.472;2023-06-22T19:33:34;16.50;;;10.70;;
61460;SDS011;47325;50.506;4.472;2023-06-22T19:39:18;17.60;;;11.40;;
61460;SDS011;47325;50.506;4.472;2023-06-22T19:45:03;18.50;;;11.30;;
61460;SDS011;47325;50.506;4.472;2023-06-22T19:50:49;16.20;;;10.40;;
61460;SDS011;47325;50.506;4.472;2023-06-22T19:56:34;17.80;;;11.30;;
61460;SDS011;47325;50.506;4.472;2023-06-22T20:02:19;18.60;;;11.60;;
61460;SDS011;47325;50.506;4.472;2023-06-22T20:08:05;20.00;;;12.50;;
61460;SDS011;47325;50.506;4.472;2023-06-22T20:13:54;19.40;;;12.80;;
61460;SDS011;47325;50.506;4.472;2023-06-22T20:19:38;19.90;;;13.80;;
61460;SDS011;47325;50.506;4.472;2023-06-22T20:25:24;20.10;;;13.20;;
61460;SDS011;47325;50.506;4.472;2023-06-22T20:31:09;18.20;;;12.40;;
61460;SDS011;47325;50.506;4.472;2023-06-22T20:36:54;17.50;;;11.10;;
61460;SDS011;47325;50.506;4.472;2023-06-22T20:42:41;17.50;;;10.90;;
61460;SDS011;47325;50.506;4.472;2023-06-22T20:48:26;14.60;;;9.20;;
61460;SDS011;47325;50.506;4.472;2023-06-22T20:54:23;12.40;;;9.00;;
61460;SDS011;47325;50.506;4.472;2023-06-22T21:00:08;14.10;;;9.00;;
61460;SDS011;47325;50.506;4.472;2023-06-22T21:05:53;14.60;;;9.80;;
61460;SDS011;47325;50.506;4.472;2023-06-22T21:11:39;18.50;;;10.70;;
61460;SDS011;47325;50.506;4.472;2023-06-22T21:17:25;16.60;;;11.10;;
61460;SDS011;47325;50.506;4.472;2023-06-22T21:23:10;17.20;;;10.60;;
61460;SDS011;47325;50.506;4.472;2023-06-22T21:28:54;15.30;;;10.10;;
61460;SDS011;47325;50.506;4.472;2023-06-22T21:34:38;14.60;;;10.30;;
61460;SDS011;47325;50.506;4.472;2023-06-22T21:40:23;14.20;;;9.70;;
61460;SDS011;47325;50.506;4.472;2023-06-22T21:46:07;15.60;;;9.60;;
61460;SDS011;47325;50.506;4.472;2023-06-22T21:51:52;15.60;;;10.10;;
61460;SDS011;47325;50.506;4.472;2023-06-22T21:57:37;12.00;;;9.20;;
61460;SDS011;47325;50.506;4.472;2023-06-22T22:03:21;13.60;;;9.40;;
61460;SDS011;47325;50.506;4.472;2023-06-22T22:09:07;14.40;;;9.70;;
61460;SDS011;47325;50.506;4.472;2023-06-22T22:14:51;14.50;;;9.30;;
61460;SDS011;47325;50.506;4.472;2023-06-22T22:20:35;12.30;;;8.70;;
61460;SDS011;47325;50.506;4.472;2023-06-22T22:26:19;13.30;;;8.50;;
61460;SDS011;47325;50.506;4.472;2023-06-22T22:32:04;15.40;;;9.50;;
61460;SDS011;47325;50.506;4.472;2023-06-22T22:37:48;13.70;;;10.10;;
61460;SDS011;47325;50.506;4.472;2023-06-22T22:43:33;17.80;;;11.10;;
61460;SDS011;47325;50.506;4.472;2023-06-22T22:49:17;16.30;;;11.40;;
61460;SDS011;47325;50.506;4.472;2023-06-22T22:55:01;17.40;;;11.60;;
61460;SDS011;47325;50.506;4.472;2023-06-22T23:00:46;17.20;;;11.30;;
61460;SDS011;47325;50.506;4.472;2023-06-22T23:06:30;18.20;;;12.40;;
61460;SDS011;47325;50.506;4.472;2023-06-22T23:12:14;16.80;;;12.00;;
61460;SDS011;47325;50.506;4.472;2023-06-22T23:18:01;19.40;;;12.60;;
61460;SDS011;47325;50.506;4.472;2023-06-22T23:23:47;17.80;;;12.70;;
61460;SDS011;47325;50.506;4.472;2023-06-22T23:29:31;19.30;;;12.40;;
61460;SDS011;47325;50.506;4.472;2023-06-22T23:35:17;18.50;;;12.60;;
61460;SDS011;47325;50.506;4.472;2023-06-22T23:41:02;19.00;;;13.30;;
61460;SDS011;47325;50.506;4.472;2023-06-22T23:46:46;20.40;;;13.30;;
61460;SDS011;47325;50.506;4.472;2023-06-22T23:52:30;17.40;;;12.40;;
61460;SDS011;47325;50.506;4.472;2023-06-22T23:58:14;17.80;;;13.00;;
